Time;durP1;ratioP1;P1;durP2;ratioP2;P2;SDS_P1;SDS_P2;PMS_P1;PMS_P2;Temp;Humidity;BMP_temperature;BMP_pressure;BME280_temperature;BME280_humidity;BME280_pressure;Samples;Min_cycle;Max_cycle;Signal;HPM_P1;HPM_P2
2023/07/12 00:01:54;;;;;;;11.38;4.35;;;;;;;28.99;57.20;100571.56;5060312;28;20599;-75
2023/07/12 00:04:38;;;;;;;6.57;4.30;;;;;;;29.00;57.26;100571.13;5072287;28;20051;-75
2023/07/12 00:07:23;;;;;;;6.88;4.13;;;;;;;29.10;57.43;100586.03;5073102;28;20048;-75
2023/07/12 00:10:23;;;;;;;10.10;5.30;;;;;;;29.02;57.29;100587.47;5073130;28;20425;-75
2023/07/12 00:13:10;;;;;;;5.97;4.03;;;;;;;29.19;56.90;100608.56;5073154;28;20051;-75
2023/07/12 00:15:55;;;;;;;5.68;4.30;;;;;;;29.29;55.45;100613.06;5075752;28;20059;-75
2023/07/12 00:18:40;;;;;;;10.00;6.07;;;;;;;28.75;57.06;100613.03;5073819;28;20406;-75
2023/07/12 00:21:28;;;;;;;10.90;5.13;;;;;;;28.97;55.61;100625.19;5077973;28;20504;-75
2023/07/12 00:24:13;;;;;;;7.25;5.25;;;;;;;29.32;55.10;100635.38;5073091;28;20047;-75
2023/07/12 00:27:00;;;;;;;6.97;5.45;;;;;;;29.36;55.04;100629.69;5073533;28;20071;-75
2023/07/12 00:29:46;;;;;;;12.43;5.97;;;;;;;29.13;54.90;100627.16;5071629;28;20492;-75
2023/07/12 00:32:31;;;;;;;8.02;6.20;;;;;;;28.40;57.21;100623.91;5075856;28;20047;-75
2023/07/12 00:35:19;;;;;;;12.48;7.03;;;;;;;28.42;57.71;100623.47;5073788;28;20052;-75
2023/07/12 00:38:05;;;;;;;7.70;6.15;;;;;;;28.63;57.11;100645.31;5076352;28;20047;-75
2023/07/12 00:41:07;;;;;;;6.95;5.50;;;;;;;28.94;56.88;100647.69;5061454;28;20504;-75
2023/07/12 00:44:08;;;;;;;5.00;4.05;;;;;;;29.11;56.79;100654.78;5059112;28;20039;-75
2023/07/12 00:46:54;;;;;;;9.18;6.18;;;;;;;28.81;57.28;100644.84;5072220;28;20119;-75
2023/07/12 00:49:39;;;;;;;11.73;6.97;;;;;;;28.51;57.59;100626.44;5058073;28;20063;-75
2023/07/12 00:52:24;;;;;;;9.93;5.50;;;;;;;28.06;59.37;100607.56;5072283;28;20253;-74
2023/07/12 00:55:47;;;;;;;16.90;6.82;;;;;;;27.87;60.18;100594.47;5063658;28;20421;-74
2023/07/12 00:58:45;;;;;;;8.75;6.45;;;;;;;28.01;60.69;100582.94;5072051;28;20044;-75
2023/07/12 01:01:34;;;;;;;11.30;7.00;;;;;;;27.96;61.16;100586.25;5061569;28;20405;-75
2023/07/12 01:04:26;;;;;;;17.08;7.55;;;;;;;27.89;61.92;100586.41;5073558;28;20059;-75
2023/07/12 01:07:12;;;;;;;9.05;7.15;;;;;;;27.73;62.49;100585.66;5072089;28;20055;-75
2023/07/12 01:09:58;;;;;;;12.48;7.57;;;;;;;27.69;62.30;100594.09;5075345;28;20052;-74
2023/07/12 01:12:43;;;;;;;12.35;7.20;;;;;;;27.91;61.68;100599.97;5059148;28;20531;-75
2023/07/12 01:15:29;;;;;;;5.55;4.63;;;;;;;28.45;59.41;100601.00;5070940;28;20047;-75
2023/07/12 01:18:13;;;;;;;9.70;5.32;;;;;;;28.87;57.97;100599.06;5071673;28;20055;-75
2023/07/12 01:21:33;;;;;;;10.05;5.40;;;;;;;28.76;58.40;100609.00;5059571;28;20047;-74
2023/07/12 01:24:19;;;;;;;12.13;8.13;;;;;;;28.36;59.48;100625.22;5062917;28;20043;-75
2023/07/12 01:27:14;;;;;;;19.30;8.18;;;;;;;28.09;59.63;100612.28;5071954;28;20043;-75
2023/07/12 01:29:59;;;;;;;8.73;5.55;;;;;;;28.25;60.05;100635.91;5070536;28;20524;-75
2023/07/12 01:32:44;;;;;;;8.45;5.82;;;;;;;28.88;57.55;100656.66;5071847;28;20519;-75
2023/07/12 01:35:31;;;;;;;8.85;6.03;;;;;;;29.06;57.25;100667.34;5073145;28;20055;-75
2023/07/12 01:38:16;;;;;;;9.82;6.07;;;;;;;29.15;56.73;100663.91;5071309;28;20048;-75
2023/07/12 01:41:01;;;;;;;10.35;6.03;;;;;;;29.23;56.33;100665.25;5061558;28;20052;-74
2023/07/12 01:43:46;;;;;;;8.35;6.57;;;;;;;29.28;56.60;100685.13;5073294;28;20047;-75
2023/07/12 01:46:31;;;;;;;13.32;6.78;;;;;;;29.21;56.54;100688.09;5071682;28;20055;-75
2023/07/12 01:49:16;;;;;;;10.98;7.57;;;;;;;29.08;56.52;100664.88;5081900;28;20043;-75
2023/07/12 01:52:03;;;;;;;14.18;6.15;;;;;;;29.10;57.02;100650.44;5090319;28;20048;-74
2023/07/12 01:54:50;;;;;;;11.52;6.85;;;;;;;29.02;57.38;100644.25;5057649;28;20413;-74
2023/07/12 01:57:37;;;;;;;12.23;5.82;;;;;;;29.15;56.97;100649.91;5071824;28;20040;-74
2023/07/12 02:00:21;;;;;;;8.93;5.63;;;;;;;29.08;57.31;100656.50;5079108;28;20047;-74
2023/07/12 02:03:06;;;;;;;10.10;6.10;;;;;;;29.21;56.66;100668.50;5061208;28;20415;-75
2023/07/12 02:05:51;;;;;;;18.17;6.15;;;;;;;28.89;56.66;100669.41;5079424;28;20404;-75
2023/07/12 02:08:37;;;;;;;11.13;7.45;;;;;;;28.40;58.44;100665.09;5082390;28;20055;-73
2023/07/12 02:11:22;;;;;;;10.20;7.18;;;;;;;28.34;58.51;100666.84;5067693;28;20047;-74
2023/07/12 02:14:07;;;;;;;12.00;6.75;;;;;;;28.46;58.82;100657.75;5066958;28;20052;-73
2023/07/12 02:16:52;;;;;;;10.77;6.20;;;;;;;28.64;57.78;100655.28;5062358;28;20040;-75
2023/07/12 02:19:37;;;;;;;11.85;6.57;;;;;;;28.87;57.28;100657.88;5074983;28;20081;-74
2023/07/12 02:22:22;;;;;;;9.95;5.70;;;;;;;28.85;57.11;100662.34;5075099;28;20043;-75
2023/07/12 02:25:08;;;;;;;8.63;5.95;;;;;;;28.63;58.01;100673.28;5081363;28;20118;-74
2023/07/12 02:27:53;;;;;;;10.77;6.90;;;;;;;28.72;58.63;100673.47;5075139;28;20044;-74
2023/07/12 02:30:38;;;;;;;13.65;6.63;;;;;;;29.01;57.77;100670.69;5059818;28;20040;-74
2023/07/12 02:33:23;;;;;;;15.73;6.75;;;;;;;29.34;57.30;100679.78;5062551;28;20052;-75
2023/07/12 02:36:08;;;;;;;9.73;6.05;;;;;;;28.99;58.39;100689.16;5082277;28;20047;-74
2023/07/12 02:38:53;;;;;;;10.48;6.22;;;;;;;29.23;57.96;100682.06;5073495;28;20404;-74
2023/07/12 02:41:37;;;;;;;13.07;7.00;;;;;;;29.39;57.37;100675.66;5088146;28;20059;-75
2023/07/12 02:44:22;;;;;;;12.00;7.03;;;;;;;29.11;57.97;100660.41;5090090;28;20043;-73
2023/07/12 02:47:09;;;;;;;10.57;6.60;;;;;;;29.17;58.00;100659.41;5068210;28;20047;-74
2023/07/12 02:49:54;;;;;;;10.98;6.28;;;;;;;29.06;58.50;100642.13;5059819;28;20492;-73
2023/07/12 02:52:39;;;;;;;11.93;6.60;;;;;;;28.25;60.37;100645.06;5074131;28;20055;-74
2023/07/12 02:55:23;;;;;;;11.13;7.18;;;;;;;27.81;62.26;100657.72;5086948;28;20043;-75
2023/07/12 02:58:08;;;;;;;10.65;6.50;;;;;;;28.12;61.42;100663.00;5061697;28;20047;-74
2023/07/12 03:00:57;;;;;;;13.60;6.47;;;;;;;28.43;60.53;100667.03;5070254;28;20035;-75
2023/07/12 03:03:42;;;;;;;10.95;6.95;;;;;;;28.24;60.15;100668.69;5089594;28;20042;-74
2023/07/12 03:06:27;;;;;;;9.73;7.40;;;;;;;27.61;62.39;100654.16;5067525;28;20404;-74
2023/07/12 03:09:12;;;;;;;12.95;7.95;;;;;;;27.22;64.30;100650.19;5073221;28;20054;-74
2023/07/12 03:11:57;;;;;;;17.35;8.52;;;;;;;26.89;65.74;100648.47;5078670;28;20047;-74
2023/07/12 03:14:41;;;;;;;17.60;8.52;;;;;;;26.58;67.40;100641.44;5079311;28;20531;-74
2023/07/12 03:17:26;;;;;;;;;;;;;;;26.74;66.91;100641.53;5092002;28;20051;-74
2023/07/12 03:20:11;;;;;;;16.48;9.82;;;;;;;26.76;66.71;100627.97;5090003;28;19912;-74
2023/07/12 03:22:55;;;;;;;28.88;11.07;;;;;;;26.75;67.15;100627.16;5077702;28;20416;-74
2023/07/12 03:25:45;;;;;;;17.23;9.40;;;;;;;26.67;67.60;100638.88;5079646;28;20040;-74
2023/07/12 03:28:30;;;;;;;15.63;10.20;;;;;;;26.71;67.81;100642.41;5114202;22;20055;-79
2023/07/12 03:31:16;;;;;;;18.25;10.18;;;;;;;26.79;67.68;100643.84;5053326;28;20045;-79
2023/07/12 03:34:01;;;;;;;13.52;10.82;;;;;;;26.89;67.91;100640.09;5052542;28;20428;-80
2023/07/12 03:36:45;;;;;;;16.67;10.68;;;;;;;26.78;67.74;100631.88;5057142;28;20049;-80
2023/07/12 03:39:30;;;;;;;13.40;10.65;;;;;;;26.69;68.69;100640.03;5070755;28;20036;-81
2023/07/12 03:42:14;;;;;;;17.20;11.48;;;;;;;26.44;69.44;100636.13;5050709;28;20032;-79
2023/07/12 03:44:59;;;;;;;22.00;10.52;;;;;;;26.21;70.72;100629.28;5070770;28;20412;-80
2023/07/12 03:47:44;;;;;;;16.05;11.88;;;;;;;26.19;70.95;100622.56;5068733;28;20494;-79
2023/07/12 03:50:29;;;;;;;16.88;12.65;;;;;;;26.28;71.09;100611.69;5053248;28;20040;-80
2023/07/12 03:53:14;;;;;;;18.15;10.95;;;;;;;26.35;70.82;100623.53;5062741;28;20421;-79
2023/07/12 03:56:03;;;;;;;13.95;10.60;;;;;;;26.45;70.38;100634.91;5061015;28;20044;-80
2023/07/12 03:58:48;;;;;;;15.52;11.40;;;;;;;26.55;69.78;100634.72;5062438;28;20040;-79
2023/07/12 04:01:33;;;;;;;16.48;11.05;;;;;;;27.01;67.61;100633.88;5057603;28;20505;-79
2023/07/12 04:04:18;;;;;;;12.10;8.60;;;;;;;27.08;66.47;100632.91;5073951;28;20040;-78
2023/07/12 04:07:03;;;;;;;9.43;7.47;;;;;;;27.00;65.88;100626.72;5059139;28;20055;-79
2023/07/12 04:09:47;;;;;;;13.18;7.47;;;;;;;27.10;65.21;100624.91;5059585;28;20071;-79
2023/07/12 04:12:35;;;;;;;13.45;7.10;;;;;;;26.99;65.13;100635.50;5050856;28;20060;-80
2023/07/12 04:15:19;;;;;;;11.80;5.35;;;;;;;27.19;64.98;100639.88;5062265;28;20051;-80
2023/07/12 04:18:04;;;;;;;10.70;5.32;;;;;;;27.23;65.21;100648.16;5064254;28;20044;-79
2023/07/12 04:20:50;;;;;;;10.07;5.90;;;;;;;27.24;65.14;100663.72;5062239;28;20043;-79
2023/07/12 04:23:34;;;;;;;18.05;5.70;;;;;;;27.14;65.52;100659.13;5049750;28;20115;-80
2023/07/12 04:26:21;;;;;;;10.77;6.03;;;;;;;27.23;65.45;100645.38;5056722;28;20059;-79
2023/07/12 04:29:05;;;;;;;10.05;5.75;;;;;;;27.19;66.20;100634.28;5061342;28;20059;-79
2023/07/12 04:31:50;;;;;;;14.45;6.00;;;;;;;27.37;65.53;100647.09;5066067;28;20044;-78
2023/07/12 04:34:35;;;;;;;9.88;6.35;;;;;;;26.38;69.45;100631.03;5057047;28;20039;-78
2023/07/12 04:37:20;;;;;;;21.98;6.38;;;;;;;26.43;69.50;100615.81;5057203;28;20044;-78
2023/07/12 04:40:05;;;;;;;18.67;6.57;;;;;;;26.60;69.57;100625.88;5071438;28;20043;-78
2023/07/12 04:42:50;;;;;;;11.07;6.65;;;;;;;26.35;70.79;100657.00;5044135;28;20048;-77
2023/07/12 04:45:35;;;;;;;15.50;6.97;;;;;;;26.57;70.50;100667.75;5044787;28;20048;-81
2023/07/12 04:48:20;;;;;;;;;;;;;;;27.09;68.63;100668.78;5057158;28;20048;-80
2023/07/12 04:51:04;;;;;;;13.20;5.30;;;;;;;27.38;66.72;100679.41;5062471;28;19917;-81
2023/07/12 04:53:49;;;;;;;11.73;4.90;;;;;;;27.59;65.78;100696.50;5055371;28;20047;-80
2023/07/12 04:56:34;;;;;;;13.20;5.35;;;;;;;27.76;64.72;100674.19;5058067;28;20051;-86
2023/07/12 04:59:19;;;;;;;18.52;5.47;;;;;;;27.87;63.94;100669.16;5046285;28;20047;-82
2023/07/12 05:02:04;;;;;;;29.15;5.78;;;;;;;27.98;63.71;100675.28;5058188;28;20048;-82
2023/07/12 05:04:49;;;;;;;19.38;5.38;;;;;;;28.06;63.46;100679.47;5064406;28;20055;-82
2023/07/12 05:07:34;;;;;;;10.07;5.07;;;;;;;28.08;63.32;100714.19;5077737;28;20055;-82
2023/07/12 05:10:18;;;;;;;12.38;5.45;;;;;;;28.17;62.79;100724.00;5051413;28;20047;-82
2023/07/12 05:13:03;;;;;;;10.95;5.15;;;;;;;28.14;63.38;100719.31;5063964;28;20048;-81
2023/07/12 05:15:52;;;;;;;11.07;4.10;;;;;;;28.19;63.33;100716.75;5073430;28;20514;-81
2023/07/12 05:18:37;;;;;;;7.80;4.97;;;;;;;28.30;62.63;100724.88;5068487;28;20503;-82
2023/07/12 05:21:24;;;;;;;21.27;5.53;;;;;;;28.31;63.17;100726.47;5057248;28;20420;-82
2023/07/12 05:24:08;;;;;;;15.70;5.22;;;;;;;28.29;63.96;100723.34;5049892;28;20067;-84
2023/07/12 05:26:52;;;;;;;9.73;5.00;;;;;;;28.33;63.61;100715.63;5070800;28;20051;-84
2023/07/12 05:29:37;;;;;;;11.85;5.35;;;;;;;28.29;64.02;100706.56;5045253;28;20046;-82
2023/07/12 05:32:22;;;;;;;11.40;5.40;;;;;;;28.32;64.03;100714.84;5075032;28;20055;-83
2023/07/12 05:35:16;;;;;;;10.15;4.25;;;;;;;28.40;63.59;100727.44;5059205;28;20056;-82
2023/07/12 05:38:00;;;;;;;11.43;4.35;;;;;;;28.46;63.17;100758.47;5053851;28;20063;-82
2023/07/12 05:40:44;;;;;;;13.88;5.32;;;;;;;28.49;62.85;100777.19;5057235;28;20050;-81
2023/07/12 05:43:29;;;;;;;8.70;4.47;;;;;;;28.52;62.97;100793.09;5077294;28;20062;-80
2023/07/12 05:46:14;;;;;;;12.25;5.93;;;;;;;28.54;62.85;100798.28;5061431;28;20043;-82
2023/07/12 05:48:58;;;;;;;6.72;4.32;;;;;;;28.58;62.63;100796.16;5049346;28;20056;-80
2023/07/12 05:51:44;;;;;;;13.95;5.40;;;;;;;28.58;62.91;100757.00;5063831;28;20043;-80
2023/07/12 05:54:29;;;;;;;12.73;5.88;;;;;;;28.55;63.23;100739.06;5049604;28;20047;-82
2023/07/12 05:57:14;;;;;;;10.85;4.82;;;;;;;28.55;62.74;100755.06;5074928;28;20526;-81
2023/07/12 06:00:00;;;;;;;16.60;6.32;;;;;;;28.63;62.44;100776.06;5060911;28;20051;-81
2023/07/12 06:02:45;;;;;;;10.27;5.30;;;;;;;28.64;62.05;100758.03;5063961;28;20059;-82
2023/07/12 06:05:32;;;;;;;5.47;4.40;;;;;;;28.64;61.56;100749.66;5050463;28;20511;-81
2023/07/12 06:08:17;;;;;;;12.63;3.97;;;;;;;28.55;61.92;100730.66;5056882;28;20425;-81
2023/07/12 06:11:01;;;;;;;11.45;4.18;;;;;;;28.53;62.01;100729.53;5049339;28;20052;-80
2023/07/12 06:13:46;;;;;;;14.13;4.72;;;;;;;28.52;61.95;100741.94;5056749;28;20051;-82
2023/07/12 06:16:32;;;;;;;7.97;4.60;;;;;;;28.51;61.92;100743.94;5050009;28;20051;-86
2023/07/12 06:19:17;;;;;;;6.72;4.15;;;;;;;28.59;62.31;100728.56;5057747;28;20063;-82
2023/07/12 06:22:02;;;;;;;8.93;4.22;;;;;;;28.70;61.83;100737.47;5072212;28;20047;-80
2023/07/12 06:24:47;;;;;;;9.10;4.55;;;;;;;28.71;61.70;100744.66;5064099;28;20052;-83
2023/07/12 06:27:31;;;;;;;5.70;3.90;;;;;;;28.74;61.67;100757.81;5057707;28;20067;-83
2023/07/12 06:30:17;;;;;;;6.65;3.95;;;;;;;28.75;61.07;100770.56;5068629;28;20516;-85
2023/07/12 06:33:02;;;;;;;8.50;3.70;;;;;;;28.75;61.22;100787.34;5044872;28;20098;-84
2023/07/12 06:35:47;;;;;;;5.82;4.10;;;;;;;28.84;60.84;100814.75;5072846;28;20051;-85
2023/07/12 06:38:32;;;;;;;6.78;3.72;;;;;;;28.90;60.48;100833.38;5056606;28;20520;-82
2023/07/12 06:41:16;;;;;;;9.13;4.50;;;;;;;28.89;59.98;100839.44;5063129;28;20611;-84
2023/07/12 06:44:01;;;;;;;13.57;3.80;;;;;;;28.85;57.87;100836.69;5063615;28;20119;-84
2023/07/12 06:46:46;;;;;;;5.32;3.90;;;;;;;28.88;58.30;100852.63;5071578;28;20067;-82
2023/07/12 06:49:32;;;;;;;17.40;5.18;;;;;;;28.98;58.38;100867.59;5044584;28;20056;-80
2023/07/12 06:52:17;;;;;;;11.65;4.40;;;;;;;29.00;58.72;100887.56;5045473;28;20043;-82
2023/07/12 06:55:01;;;;;;;8.73;4.97;;;;;;;29.02;58.48;100904.69;5067157;28;20047;-83
2023/07/12 06:57:46;;;;;;;12.82;4.93;;;;;;;29.04;58.71;100916.25;5052743;28;20052;-83
2023/07/12 07:00:31;;;;;;;10.25;5.20;;;;;;;29.08;59.63;100910.56;5053051;28;20075;-83
2023/07/12 07:03:16;;;;;;;17.00;5.95;;;;;;;29.12;60.25;100895.25;5060235;28;20040;-83
2023/07/12 07:06:01;;;;;;;14.68;5.43;;;;;;;29.09;58.79;100886.94;5066749;28;20059;-83
2023/07/12 07:08:47;;;;;;;17.13;5.72;;;;;;;29.10;59.22;100891.31;5063586;28;20063;-82
2023/07/12 07:11:32;;;;;;;15.57;4.88;;;;;;;29.13;59.49;100907.25;5074944;28;20071;-83
2023/07/12 07:14:16;;;;;;;10.32;4.60;;;;;;;29.13;59.79;100919.25;5066408;28;20063;-83
2023/07/12 07:17:01;;;;;;;12.68;4.72;;;;;;;29.15;60.68;100918.81;5074856;28;20047;-82
2023/07/12 07:19:46;;;;;;;9.55;4.90;;;;;;;29.15;60.23;100921.59;5074849;28;20043;-83
2023/07/12 07:22:30;;;;;;;11.85;5.18;;;;;;;29.15;60.23;100930.81;5064595;28;20043;-82
2023/07/12 07:25:16;;;;;;;12.07;4.63;;;;;;;29.16;60.04;100925.97;5067049;28;20056;-82
2023/07/12 07:28:01;;;;;;;7.63;4.43;;;;;;;29.20;59.65;100919.06;5060732;28;20056;-81
2023/07/12 07:30:51;;;;;;;9.98;5.15;;;;;;;29.25;59.55;100926.16;5066367;28;20063;-83
2023/07/12 07:33:38;;;;;;;8.63;4.47;;;;;;;29.26;59.47;100941.72;5066302;28;20413;-83
2023/07/12 07:36:31;;;;;;;11.48;5.45;;;;;;;29.27;59.33;100946.09;5074944;28;20044;-83
2023/07/12 07:39:15;;;;;;;7.20;5.10;;;;;;;29.22;59.44;100941.81;5075978;28;20067;-82
2023/07/12 07:42:01;;;;;;;10.88;5.03;;;;;;;29.25;59.17;100937.38;5094737;28;20043;-81
2023/07/12 07:44:46;;;;;;;8.63;4.63;;;;;;;29.21;59.25;100929.03;5086208;28;20059;-82
2023/07/12 07:47:31;;;;;;;12.07;5.35;;;;;;;29.24;59.12;100935.78;5079455;28;20051;-82
2023/07/12 07:50:16;;;;;;;15.68;4.47;;;;;;;29.25;59.21;100945.78;5094739;28;20118;-82
2023/07/12 07:53:00;;;;;;;11.35;5.85;;;;;;;29.27;58.91;100948.91;5079306;28;20114;-81
2023/07/12 07:55:45;;;;;;;8.75;4.72;;;;;;;29.26;58.73;100944.53;5086071;28;20047;-81
2023/07/12 07:58:30;;;;;;;10.05;4.65;;;;;;;29.28;58.36;100930.88;5069598;28;20051;-84
2023/07/12 08:01:15;;;;;;;8.98;4.28;;;;;;;29.27;58.21;100923.69;5094524;28;20515;-81
2023/07/12 08:04:00;;;;;;;10.38;4.18;;;;;;;29.28;57.76;100917.66;5084796;28;20055;-82
2023/07/12 08:06:44;;;;;;;10.18;3.88;;;;;;;29.27;56.46;100910.47;5085748;28;20055;-84
2023/07/12 08:09:29;;;;;;;19.00;4.72;;;;;;;29.31;55.74;100902.00;5080915;28;20073;-82
2023/07/12 08:12:14;;;;;;;16.27;3.85;;;;;;;29.34;55.03;100887.13;5079108;28;20432;-84
2023/07/12 08:14:59;;;;;;;7.65;4.10;;;;;;;29.38;55.14;100873.00;5071659;28;20050;-82
2023/07/12 08:17:44;;;;;;;8.05;3.38;;;;;;;29.41;54.81;100870.09;5093847;28;20408;-82
2023/07/12 08:20:29;;;;;;;43.85;6.40;;;;;;;29.46;54.15;100852.00;5094156;28;20051;-82
2023/07/12 08:23:14;;;;;;;10.50;3.35;;;;;;;29.48;54.69;100839.09;5085641;28;20051;-84
2023/07/12 08:25:59;;;;;;;7.70;2.80;;;;;;;29.50;54.06;100816.25;5080665;28;20511;-83
2023/07/12 08:28:44;;;;;;;8.00;3.45;;;;;;;29.52;53.70;100813.78;5078135;28;20051;-81
2023/07/12 08:31:29;;;;;;;8.65;2.97;;;;;;;29.60;52.11;100804.75;5082582;28;20054;-79
2023/07/12 08:34:14;;;;;;;14.27;3.47;;;;;;;29.69;50.56;100806.88;5078517;28;20044;-82
2023/07/12 08:36:58;;;;;;;8.52;2.47;;;;;;;29.74;50.34;100793.13;5078194;28;20527;-82
2023/07/12 08:39:42;;;;;;;13.75;3.75;;;;;;;29.78;50.79;100801.41;5079580;28;20043;-82
2023/07/12 08:42:34;;;;;;;8.45;3.50;;;;;;;29.82;51.89;100795.72;5093826;28;20039;-82
2023/07/12 08:45:26;;;;;;;12.38;3.92;;;;;;;29.94;50.54;100786.56;5087791;28;20047;-83
2023/07/12 08:48:31;;;;;;;8.52;3.00;;;;;;;30.02;50.43;100787.94;5084540;28;20039;-84
2023/07/12 08:51:23;;;;;;;10.23;3.38;;;;;;;30.05;50.53;100792.63;5100650;28;20050;-82
2023/07/12 08:54:22;;;;;;;9.73;3.08;;;;;;;30.17;46.79;100789.06;5085321;28;20114;-84
2023/07/12 08:57:24;;;;;;;8.43;3.05;;;;;;;30.19;46.54;100780.97;5070783;28;20071;-84
2023/07/12 09:00:15;;;;;;;6.97;3.03;;;;;;;30.22;47.84;100788.50;5078276;28;20058;-82
2023/07/12 09:02:59;;;;;;;9.98;3.40;;;;;;;30.35;47.12;100780.88;5078130;28;20043;-84
2023/07/12 09:05:45;;;;;;;10.88;3.00;;;;;;;30.39;48.33;100780.75;5071021;28;20527;-82
2023/07/12 09:08:36;;;;;;;12.20;3.08;;;;;;;30.36;49.14;100784.47;5077573;28;20535;-82
2023/07/12 09:11:29;;;;;;;17.25;3.40;;;;;;;30.42;48.24;100783.47;5066915;28;20051;-84
2023/07/12 09:14:19;;;;;;;17.77;3.25;;;;;;;30.50;48.15;100784.81;5084750;28;20051;-82
2023/07/12 09:17:21;;;;;;;9.50;3.10;;;;;;;30.50;48.63;100784.81;5077529;28;20523;-82
2023/07/12 09:20:21;;;;;;;11.82;3.83;;;;;;;30.62;48.10;100780.44;5092806;28;20396;-80
2023/07/12 09:23:11;;;;;;;18.48;3.25;;;;;;;30.62;48.40;100774.81;5077975;28;20035;-83
2023/07/12 09:25:56;;;;;;;11.70;3.35;;;;;;;30.62;48.70;100777.63;5078011;28;20058;-82
2023/07/12 09:28:41;;;;;;;6.47;3.15;;;;;;;30.72;48.34;100784.13;5059132;22;20064;-81
2023/07/12 09:31:32;;;;;;;12.20;3.47;;;;;;;30.79;47.97;100790.28;5081877;28;20059;-81
2023/07/12 09:34:39;;;;;;;10.13;3.38;;;;;;;30.86;46.80;100789.25;5097176;28;20051;-81
2023/07/12 09:37:24;;;;;;;8.93;2.97;;;;;;;30.79;48.28;100792.28;5096439;28;20051;-82
2023/07/12 09:40:15;;;;;;;8.95;2.75;;;;;;;30.83;47.91;100807.78;5077234;28;20528;-82
2023/07/12 09:43:04;;;;;;;8.65;3.65;;;;;;;30.92;46.96;100809.94;5068192;28;20043;-82
2023/07/12 09:46:03;;;;;;;11.48;2.72;;;;;;;30.96;47.53;100807.78;5061220;28;20114;-81
2023/07/12 09:49:04;;;;;;;12.07;3.03;;;;;;;31.04;46.30;100817.56;5076404;28;20540;-82
2023/07/12 09:52:12;;;;;;;10.35;3.75;;;;;;;31.03;46.92;100816.00;5074920;28;20056;-81
2023/07/12 09:55:35;;;;;;;7.78;2.88;;;;;;;31.06;47.04;100820.69;5071373;28;20051;-82
2023/07/12 09:58:33;;;;;;;14.88;3.53;;;;;;;31.00;47.36;100825.28;5031899;28;20049;-81
2023/07/12 10:01:50;;;;;;;9.05;3.08;;;;;;;31.01;47.23;100824.06;5073187;28;20047;-81
2023/07/12 10:04:55;;;;;;;11.43;3.40;;;;;;;30.96;47.80;100827.44;5042199;28;20513;-81
2023/07/12 10:07:53;;;;;;;7.03;3.35;;;;;;;31.02;47.49;100831.28;5066365;28;20044;-83
2023/07/12 10:11:04;;;;;;;15.57;3.75;;;;;;;31.16;47.30;100841.25;5078121;28;20047;-80
2023/07/12 10:13:52;;;;;;;10.85;2.97;;;;;;;31.33;46.27;100846.25;5076473;28;20044;-80
2023/07/12 10:16:45;;;;;;;18.55;3.47;;;;;;;31.32;46.92;100832.66;5080446;28;20417;-80
2023/07/12 10:19:37;;;;;;;10.88;2.83;;;;;;;31.42;45.76;100837.91;5076005;28;20048;-80
2023/07/12 10:22:29;;;;;;;5.75;2.78;;;;;;;31.48;45.77;100840.13;5066469;28;20040;-80
2023/07/12 10:25:31;;;;;;;11.40;2.92;;;;;;;31.56;44.70;100830.97;5077178;28;20055;-80
2023/07/12 10:28:41;;;;;;;12.10;3.92;;;;;;;31.43;46.22;100836.66;5073858;28;20043;-79
2023/07/12 10:31:36;;;;;;;12.35;3.80;;;;;;;31.59;43.94;100830.13;5070651;28;20039;-80
2023/07/12 10:34:43;;;;;;;9.23;3.00;;;;;;;31.50;44.93;100821.56;5066784;28;20693;-80
2023/07/12 10:37:43;;;;;;;13.70;2.88;;;;;;;31.57;45.18;100821.34;5076882;28;20063;-79
2023/07/12 10:40:36;;;;;;;10.15;3.63;;;;;;;31.63;44.53;100825.13;5069772;28;20111;-80
2023/07/12 10:43:31;;;;;;;26.92;3.83;;;;;;;31.79;43.78;100822.13;5074386;28;20059;-80
2023/07/12 10:46:30;;;;;;;9.20;3.15;;;;;;;31.71;44.27;100822.84;5079415;28;20428;-80
2023/07/12 10:49:17;;;;;;;14.38;3.13;;;;;;;31.65;44.71;100811.38;5060286;28;20052;-80
2023/07/12 10:52:15;;;;;;;6.65;3.08;;;;;;;31.75;44.12;100800.97;5065804;28;20044;-80
2023/07/12 10:55:03;;;;;;;15.45;3.20;;;;;;;32.08;41.90;100816.19;5074957;28;20055;-80
2023/07/12 10:57:50;;;;;;;20.75;3.92;;;;;;;31.96;42.91;100808.63;5074779;28;20039;-80
2023/07/12 11:00:49;;;;;;;6.32;2.60;;;;;;;32.07;42.28;100803.38;5081581;28;20527;-80
2023/07/12 11:03:47;;;;;;;10.88;2.75;;;;;;;31.98;43.03;100800.50;5080180;28;20039;-80
2023/07/12 11:06:33;;;;;;;10.57;3.33;;;;;;;32.06;43.38;100807.44;5076906;28;20047;-79
2023/07/12 11:09:18;;;;;;;10.93;3.10;;;;;;;32.05;42.60;100802.28;5078795;28;20063;-80
2023/07/12 11:12:07;;;;;;;8.07;2.97;;;;;;;32.21;41.53;100802.06;5076294;28;20048;-80
2023/07/12 11:15:05;;;;;;;12.88;3.13;;;;;;;32.20;42.15;100798.44;5072465;28;20048;-80
2023/07/12 11:18:22;;;;;;;9.30;2.95;;;;;;;32.13;42.33;100800.78;5056893;28;20040;-80
2023/07/12 11:21:26;;;;;;;8.45;2.95;;;;;;;32.08;42.48;100799.31;5077794;28;20048;-80
2023/07/12 11:24:29;;;;;;;11.52;2.70;;;;;;;32.23;41.57;100806.00;5070422;28;20052;-80
2023/07/12 11:27:36;;;;;;;15.07;2.85;;;;;;;32.35;39.77;100800.72;5066956;28;20063;-80
2023/07/12 11:30:36;;;;;;;15.38;2.92;;;;;;;32.35;39.96;100795.88;5072083;28;20405;-80
2023/07/12 11:33:30;;;;;;;8.43;3.25;;;;;;;32.36;40.40;100785.38;5061697;28;20515;-81
2023/07/12 11:36:28;;;;;;;11.68;3.15;;;;;;;32.43;40.03;100794.34;5066825;28;20071;-80
2023/07/12 11:39:17;;;;;;;9.45;2.47;;;;;;;32.40;41.30;100791.66;5077229;28;20047;-80
2023/07/12 11:42:08;;;;;;;10.43;2.80;;;;;;;32.39;40.54;100790.88;5076056;28;20052;-80
2023/07/12 11:45:05;;;;;;;9.73;3.47;;;;;;;32.38;41.49;100788.53;5068705;28;20040;-80
2023/07/12 11:47:53;;;;;;;8.32;2.35;;;;;;;32.44;40.35;100781.84;5072358;28;20043;-81
2023/07/12 11:50:39;;;;;;;12.57;2.67;;;;;;;32.33;41.13;100780.69;5071658;28;20040;-80
2023/07/12 11:53:24;;;;;;;18.65;3.58;;;;;;;32.50;40.27;100776.38;5071189;28;20059;-80
2023/07/12 11:56:15;;;;;;;8.20;2.53;;;;;;;32.56;40.63;100782.97;5080834;28;20056;-79
2023/07/12 11:59:00;;;;;;;15.40;3.00;;;;;;;32.50;40.94;100779.97;5077420;28;20052;-80
2023/07/12 12:01:47;;;;;;;8.57;2.28;;;;;;;32.43;40.90;100773.84;5066615;28;20043;-81
2023/07/12 12:04:32;;;;;;;6.43;2.25;;;;;;;32.47;40.93;100774.47;5063966;28;20047;-81
2023/07/12 12:07:24;;;;;;;14.00;3.50;;;;;;;32.51;40.22;100775.13;5079202;28;20044;-80
2023/07/12 12:10:24;;;;;;;11.07;2.55;;;;;;;32.51;41.12;100770.25;5071233;28;20421;-80
2023/07/12 12:13:18;;;;;;;7.25;2.72;;;;;;;32.50;41.75;100770.75;5058708;28;20039;-80
2023/07/12 12:16:17;;;;;;;11.98;2.30;;;;;;;32.49;41.99;100766.34;5068084;28;20071;-80
2023/07/12 12:19:27;;;;;;;9.02;3.00;;;;;;;32.45;42.84;100760.09;5074198;28;20039;-80
2023/07/12 12:22:18;;;;;;;12.18;2.65;;;;;;;32.51;42.29;100758.25;5075085;28;20048;-80
2023/07/12 12:25:02;;;;;;;8.23;2.95;;;;;;;32.56;40.58;100755.56;5071760;28;20047;-80
2023/07/12 12:27:48;;;;;;;7.13;2.28;;;;;;;32.58;40.95;100752.28;5059161;28;20048;-80
2023/07/12 12:30:33;;;;;;;8.63;2.33;;;;;;;32.65;40.73;100746.41;5053959;28;20047;-80
2023/07/12 12:33:26;;;;;;;15.48;3.08;;;;;;;32.60;41.28;100742.13;5076870;28;20052;-80
2023/07/12 12:36:24;;;;;;;12.37;2.27;;;;;;;32.76;40.70;100741.09;5079030;28;20306;-81
2023/07/12 12:39:12;;;;;;;5.38;2.42;;;;;;;32.74;40.61;100740.00;5061904;28;20124;-80
2023/07/12 12:42:18;;;;;;;4.28;1.92;;;;;;;32.69;41.48;100735.75;5064776;28;20048;-80
2023/07/12 12:45:03;;;;;;;13.25;2.53;;;;;;;32.72;41.48;100737.63;5077325;28;20060;-80
2023/07/12 12:47:48;;;;;;;8.77;2.20;;;;;;;32.76;40.91;100735.47;5069303;28;20048;-81
2023/07/12 12:50:33;;;;;;;13.32;2.75;;;;;;;32.78;40.29;100724.50;5070403;28;20052;-81
2023/07/12 12:53:18;;;;;;;10.48;2.80;;;;;;;32.74;41.41;100723.09;5066677;28;20044;-79
2023/07/12 12:56:03;;;;;;;17.55;2.08;;;;;;;32.75;41.50;100728.25;5079891;28;20056;-81
2023/07/12 12:58:48;;;;;;;8.18;2.47;;;;;;;32.75;41.17;100727.47;5057932;28;20051;-81